首页
METAR-TAF:

METAR-TAF

机场 :

Tasiujaq, 魁北克, 加拿大

纬度: 58-40N, 经度: 069-57W, 海拔: 31米

当前天气观测

该预报发布于3小时和45分钟前的21:00 UTC
风速13节,风向东北,有时为19节阵风
温度 10°C
湿度 66%
气压 1006 hPa
能見度: 24.1公里
多云层高于4000英尺

METAR: CYTQ 152100Z 05013G19KT 15SM BKN040 10/04 A2971 RMK SC6 LAST OBS NEXT/161200 UTC SLP064

时间: 20:45 (00:45 UTC)

预报

该预报发布于11小时和5分钟前的13:40 UTC
预报有效从15日的 14点(UTC)到 15日的 21点(UTC)
风速12节,风向东北,有时为22节阵风
能見度: 10公里
少量云层高于700英尺
散云层高于4000英尺
多云层高于24000英尺

TAF: CYTQ 151340Z 1514/1521 05012G22KT P6SM FEW007 SCT040 BKN240 RMK NXT FCST BY 161400Z

超过4000个机场的气象观测和天气预报(METAR&TAF报告)。

可查询的气象台以黄色和红色小点在地图上表示。

将鼠标移到小点上方,可查看气象台名称。

然后点击查看天气观测和预报。

如需切换地图:点击带黑十字的绿色按钮放大地图;点击带横线的绿色按钮缩小地图;或者点击绿色箭头查看邻近地区的地图。


METAR-TAF: